sensor_id;sensor_type;location;lat;lon;timestamp;P1;durP1;ratioP1;P2;durP2;ratioP2
14121;SDS011;7139;48.114;11.442;2023-05-13T00:02:12;8.10;;;6.83;;
14121;SDS011;7139;48.114;11.442;2023-05-13T00:04:39;9.13;;;7.17;;
14121;SDS011;7139;48.114;11.442;2023-05-13T00:07:06;8.37;;;6.77;;
14121;SDS011;7139;48.114;11.442;2023-05-13T00:09:32;7.77;;;6.97;;
14121;SDS011;7139;48.114;11.442;2023-05-13T00:12:01;7.93;;;7.23;;
14121;SDS011;7139;48.114;11.442;2023-05-13T00:14:28;8.03;;;7.33;;
14121;SDS011;7139;48.114;11.442;2023-05-13T00:16:56;7.33;;;6.63;;
14121;SDS011;7139;48.114;11.442;2023-05-13T00:19:23;7.87;;;7.07;;
14121;SDS011;7139;48.114;11.442;2023-05-13T00:21:50;7.43;;;6.83;;
14121;SDS011;7139;48.114;11.442;2023-05-13T00:24:17;7.40;;;6.77;;
14121;SDS011;7139;48.114;11.442;2023-05-13T00:26:44;7.53;;;6.90;;
14121;SDS011;7139;48.114;11.442;2023-05-13T00:29:12;7.97;;;7.27;;
14121;SDS011;7139;48.114;11.442;2023-05-13T00:31:39;8.13;;;7.33;;
14121;SDS011;7139;48.114;11.442;2023-05-13T00:34:05;8.07;;;7.27;;
14121;SDS011;7139;48.114;11.442;2023-05-13T00:36:32;9.07;;;7.37;;
14121;SDS011;7139;48.114;11.442;2023-05-13T00:38:59;8.10;;;7.40;;
14121;SDS011;7139;48.114;11.442;2023-05-13T00:41:25;8.83;;;8.03;;
14121;SDS011;7139;48.114;11.442;2023-05-13T00:43:53;9.03;;;8.13;;
14121;SDS011;7139;48.114;11.442;2023-05-13T00:46:22;8.47;;;7.77;;
14121;SDS011;7139;48.114;11.442;2023-05-13T00:48:49;8.03;;;7.33;;
14121;SDS011;7139;48.114;11.442;2023-05-13T00:51:16;8.93;;;8.03;;
14121;SDS011;7139;48.114;11.442;2023-05-13T00:53:43;10.27;;;8.60;;
14121;SDS011;7139;48.114;11.442;2023-05-13T00:56:10;8.93;;;8.13;;
14121;SDS011;7139;48.114;11.442;2023-05-13T00:58:38;9.53;;;8.20;;
14121;SDS011;7139;48.114;11.442;2023-05-13T01:01:07;9.90;;;9.00;;
14121;SDS011;7139;48.114;11.442;2023-05-13T01:03:43;9.70;;;8.37;;
14121;SDS011;7139;48.114;11.442;2023-05-13T01:06:16;9.17;;;8.27;;
14121;SDS011;7139;48.114;11.442;2023-05-13T01:08:48;9.23;;;8.43;;
14121;SDS011;7139;48.114;11.442;2023-05-13T01:11:21;9.87;;;8.87;;
14121;SDS011;7139;48.114;11.442;2023-05-13T01:13:54;9.93;;;9.03;;
14121;SDS011;7139;48.114;11.442;2023-05-13T01:16:37;9.50;;;8.50;;
14121;SDS011;7139;48.114;11.442;2023-05-13T01:19:12;10.20;;;9.27;;
14121;SDS011;7139;48.114;11.442;2023-05-13T01:21:51;11.00;;;9.93;;
14121;SDS011;7139;48.114;11.442;2023-05-13T01:24:19;10.97;;;9.87;;
14121;SDS011;7139;48.114;11.442;2023-05-13T01:26:46;11.03;;;9.90;;
14121;SDS011;7139;48.114;11.442;2023-05-13T01:29:13;11.50;;;10.17;;
14121;SDS011;7139;48.114;11.442;2023-05-13T01:31:40;11.13;;;9.40;;
14121;SDS011;7139;48.114;11.442;2023-05-13T01:34:07;10.67;;;9.60;;
14121;SDS011;7139;48.114;11.442;2023-05-13T01:36:35;11.13;;;9.70;;
14121;SDS011;7139;48.114;11.442;2023-05-13T01:39:04;11.13;;;10.00;;
14121;SDS011;7139;48.114;11.442;2023-05-13T01:41:31;11.17;;;10.07;;
14121;SDS011;7139;48.114;11.442;2023-05-13T01:43:58;11.13;;;10.00;;
14121;SDS011;7139;48.114;11.442;2023-05-13T01:46:24;11.20;;;10.10;;
14121;SDS011;7139;48.114;11.442;2023-05-13T01:48:51;11.90;;;10.70;;
14121;SDS011;7139;48.114;11.442;2023-05-13T01:51:18;10.90;;;9.80;;
14121;SDS011;7139;48.114;11.442;2023-05-13T01:53:45;12.27;;;11.17;;
14121;SDS011;7139;48.114;11.442;2023-05-13T01:56:13;11.93;;;10.73;;
14121;SDS011;7139;48.114;11.442;2023-05-13T01:58:40;11.87;;;10.67;;
14121;SDS011;7139;48.114;11.442;2023-05-13T02:01:07;12.33;;;11.07;;
14121;SDS011;7139;48.114;11.442;2023-05-13T02:03:33;11.40;;;10.40;;
14121;SDS011;7139;48.114;11.442;2023-05-13T02:06:00;11.13;;;10.00;;
14121;SDS011;7139;48.114;11.442;2023-05-13T02:08:27;11.83;;;10.60;;
14121;SDS011;7139;48.114;11.442;2023-05-13T02:10:55;12.87;;;11.57;;
14121;SDS011;7139;48.114;11.442;2023-05-13T02:13:23;12.97;;;11.67;;
14121;SDS011;7139;48.114;11.442;2023-05-13T02:15:51;15.03;;;13.43;;
14121;SDS011;7139;48.114;11.442;2023-05-13T02:18:18;13.67;;;12.30;;
14121;SDS011;7139;48.114;11.442;2023-05-13T02:20:45;14.03;;;12.63;;
14121;SDS011;7139;48.114;11.442;2023-05-13T02:23:11;14.10;;;12.70;;
14121;SDS011;7139;48.114;11.442;2023-05-13T02:25:39;14.47;;;12.90;;
14121;SDS011;7139;48.114;11.442;2023-05-13T02:28:06;14.77;;;13.20;;
14121;SDS011;7139;48.114;11.442;2023-05-13T02:30:34;15.57;;;13.97;;
14121;SDS011;7139;48.114;11.442;2023-05-13T02:33:01;14.67;;;13.20;;
14121;SDS011;7139;48.114;11.442;2023-05-13T02:35:28;14.17;;;12.77;;
14121;SDS011;7139;48.114;11.442;2023-05-13T02:37:54;13.83;;;12.43;;
14121;SDS011;7139;48.114;11.442;2023-05-13T02:40:21;14.10;;;12.67;;
14121;SDS011;7139;48.114;11.442;2023-05-13T02:42:49;13.97;;;12.50;;
14121;SDS011;7139;48.114;11.442;2023-05-13T02:45:15;14.30;;;12.63;;
14121;SDS011;7139;48.114;11.442;2023-05-13T02:47:43;13.97;;;12.47;;
14121;SDS011;7139;48.114;11.442;2023-05-13T02:50:10;14.80;;;13.30;;
14121;SDS011;7139;48.114;11.442;2023-05-13T02:52:37;15.50;;;13.83;;
14121;SDS011;7139;48.114;11.442;2023-05-13T02:55:05;16.50;;;14.77;;
14121;SDS011;7139;48.114;11.442;2023-05-13T02:57:32;14.77;;;13.37;;
14121;SDS011;7139;48.114;11.442;2023-05-13T02:59:59;15.27;;;13.30;;
14121;SDS011;7139;48.114;11.442;2023-05-13T03:02:26;16.50;;;14.80;;
14121;SDS011;7139;48.114;11.442;2023-05-13T03:04:54;18.07;;;14.27;;
14121;SDS011;7139;48.114;11.442;2023-05-13T03:07:22;15.17;;;13.67;;
14121;SDS011;7139;48.114;11.442;2023-05-13T03:09:49;15.77;;;14.07;;
14121;SDS011;7139;48.114;11.442;2023-05-13T03:12:15;15.70;;;14.07;;
14121;SDS011;7139;48.114;11.442;2023-05-13T03:14:42;15.97;;;14.37;;
14121;SDS011;7139;48.114;11.442;2023-05-13T03:17:09;17.20;;;15.20;;
14121;SDS011;7139;48.114;11.442;2023-05-13T03:19:36;18.20;;;16.07;;
14121;SDS011;7139;48.114;11.442;2023-05-13T03:22:05;18.73;;;15.17;;
14121;SDS011;7139;48.114;11.442;2023-05-13T03:24:31;16.70;;;14.97;;
14121;SDS011;7139;48.114;11.442;2023-05-13T03:26:58;17.33;;;15.37;;
14121;SDS011;7139;48.114;11.442;2023-05-13T03:29:25;18.80;;;16.30;;
14121;SDS011;7139;48.114;11.442;2023-05-13T03:31:52;20.77;;;16.30;;
14121;SDS011;7139;48.114;11.442;2023-05-13T03:34:19;18.17;;;16.27;;
14121;SDS011;7139;48.114;11.442;2023-05-13T03:36:45;17.47;;;15.57;;
14121;SDS011;7139;48.114;11.442;2023-05-13T03:39:13;18.03;;;16.10;;
14121;SDS011;7139;48.114;11.442;2023-05-13T03:41:41;19.40;;;16.63;;
14121;SDS011;7139;48.114;11.442;2023-05-13T03:44:08;17.17;;;15.37;;
14121;SDS011;7139;48.114;11.442;2023-05-13T03:46:35;17.77;;;15.87;;
14121;SDS011;7139;48.114;11.442;2023-05-13T03:49:01;20.70;;;16.70;;
14121;SDS011;7139;48.114;11.442;2023-05-13T03:51:28;19.70;;;17.60;;
14121;SDS011;7139;48.114;11.442;2023-05-13T03:53:57;17.30;;;15.33;;
14121;SDS011;7139;48.114;11.442;2023-05-13T03:56:25;18.77;;;16.87;;
14121;SDS011;7139;48.114;11.442;2023-05-13T03:58:52;18.27;;;16.37;;
14121;SDS011;7139;48.114;11.442;2023-05-13T04:01:20;17.03;;;15.23;;
14121;SDS011;7139;48.114;11.442;2023-05-13T04:03:46;18.47;;;16.53;;
14121;SDS011;7139;48.114;11.442;2023-05-13T04:06:14;19.33;;;17.00;;
14121;SDS011;7139;48.114;11.442;2023-05-13T04:08:41;18.60;;;16.17;;
14121;SDS011;7139;48.114;11.442;2023-05-13T04:11:08;18.93;;;16.67;;
14121;SDS011;7139;48.114;11.442;2023-05-13T04:13:36;18.70;;;16.77;;
14121;SDS011;7139;48.114;11.442;2023-05-13T04:16:03;17.40;;;15.60;;
14121;SDS011;7139;48.114;11.442;2023-05-13T04:18:30;17.23;;;15.43;;
14121;SDS011;7139;48.114;11.442;2023-05-13T04:20:58;18.43;;;15.03;;
14121;SDS011;7139;48.114;11.442;2023-05-13T04:23:25;19.07;;;16.93;;
14121;SDS011;7139;48.114;11.442;2023-05-13T04:25:52;17.03;;;14.47;;
14121;SDS011;7139;48.114;11.442;2023-05-13T04:28:18;15.93;;;14.33;;
14121;SDS011;7139;48.114;11.442;2023-05-13T04:30:47;16.37;;;14.57;;
14121;SDS011;7139;48.114;11.442;2023-05-13T04:33:13;15.70;;;13.97;;
14121;SDS011;7139;48.114;11.442;2023-05-13T04:35:40;16.97;;;15.23;;
14121;SDS011;7139;48.114;11.442;2023-05-13T04:38:07;17.43;;;15.57;;
14121;SDS011;7139;48.114;11.442;2023-05-13T04:40:34;18.10;;;15.47;;
14121;SDS011;7139;48.114;11.442;2023-05-13T04:43:01;18.00;;;15.63;;
14121;SDS011;7139;48.114;11.442;2023-05-13T04:45:28;17.43;;;15.63;;
14121;SDS011;7139;48.114;11.442;2023-05-13T04:47:57;18.93;;;16.50;;
14121;SDS011;7139;48.114;11.442;2023-05-13T04:50:23;16.80;;;14.87;;
14121;SDS011;7139;48.114;11.442;2023-05-13T04:52:50;21.03;;;16.93;;
14121;SDS011;7139;48.114;11.442;2023-05-13T04:55:18;19.97;;;17.83;;
14121;SDS011;7139;48.114;11.442;2023-05-13T04:57:45;19.30;;;17.23;;
14121;SDS011;7139;48.114;11.442;2023-05-13T05:00:12;21.37;;;15.60;;
14121;SDS011;7139;48.114;11.442;2023-05-13T05:02:40;19.57;;;17.47;;
14121;SDS011;7139;48.114;11.442;2023-05-13T05:05:08;19.03;;;16.97;;
14121;SDS011;7139;48.114;11.442;2023-05-13T05:07:35;19.17;;;17.27;;
14121;SDS011;7139;48.114;11.442;2023-05-13T05:10:04;19.87;;;16.90;;
14121;SDS011;7139;48.114;11.442;2023-05-13T05:12:32;17.60;;;15.77;;
14121;SDS011;7139;48.114;11.442;2023-05-13T05:14:59;19.17;;;16.97;;
14121;SDS011;7139;48.114;11.442;2023-05-13T05:17:25;18.50;;;16.07;;
14121;SDS011;7139;48.114;11.442;2023-05-13T05:19:56;18.47;;;16.30;;
14121;SDS011;7139;48.114;11.442;2023-05-13T05:22:24;17.80;;;16.00;;
14121;SDS011;7139;48.114;11.442;2023-05-13T05:24:51;17.80;;;15.47;;
14121;SDS011;7139;48.114;11.442;2023-05-13T05:27:18;17.23;;;15.43;;
14121;SDS011;7139;48.114;11.442;2023-05-13T05:29:44;18.60;;;16.03;;
14121;SDS011;7139;48.114;11.442;2023-05-13T05:32:11;18.13;;;16.23;;
14121;SDS011;7139;48.114;11.442;2023-05-13T05:34:38;17.13;;;15.37;;
14121;SDS011;7139;48.114;11.442;2023-05-13T05:37:05;17.63;;;15.73;;
14121;SDS011;7139;48.114;11.442;2023-05-13T05:39:33;17.90;;;16.00;;
14121;SDS011;7139;48.114;11.442;2023-05-13T05:42:00;16.80;;;14.97;;
14121;SDS011;7139;48.114;11.442;2023-05-13T05:44:27;16.37;;;14.77;;
14121;SDS011;7139;48.114;11.442;2023-05-13T05:46:53;16.87;;;15.13;;
14121;SDS011;7139;48.114;11.442;2023-05-13T05:49:20;16.80;;;15.00;;
14121;SDS011;7139;48.114;11.442;2023-05-13T05:51:47;17.03;;;15.40;;
14121;SDS011;7139;48.114;11.442;2023-05-13T05:54:13;16.60;;;14.90;;
14121;SDS011;7139;48.114;11.442;2023-05-13T05:56:42;16.57;;;14.60;;
14121;SDS011;7139;48.114;11.442;2023-05-13T05:59:08;16.27;;;14.57;;
14121;SDS011;7139;48.114;11.442;2023-05-13T06:01:35;18.50;;;16.60;;
14121;SDS011;7139;48.114;11.442;2023-05-13T06:04:02;17.87;;;15.77;;
14121;SDS011;7139;48.114;11.442;2023-05-13T06:06:30;16.60;;;14.87;;
14121;SDS011;7139;48.114;11.442;2023-05-13T06:08:57;17.00;;;15.23;;
14121;SDS011;7139;48.114;11.442;2023-05-13T06:11:24;19.37;;;16.33;;
14121;SDS011;7139;48.114;11.442;2023-05-13T06:13:53;18.00;;;16.10;;
14121;SDS011;7139;48.114;11.442;2023-05-13T06:16:21;16.70;;;14.33;;
14121;SDS011;7139;48.114;11.442;2023-05-13T06:18:48;17.20;;;15.50;;
14121;SDS011;7139;48.114;11.442;2023-05-13T06:21:14;17.53;;;15.73;;
14121;SDS011;7139;48.114;11.442;2023-05-13T06:23:41;18.03;;;15.40;;
14121;SDS011;7139;48.114;11.442;2023-05-13T06:26:08;16.30;;;14.60;;
14121;SDS011;7139;48.114;11.442;2023-05-13T06:28:35;17.23;;;15.43;;
14121;SDS011;7139;48.114;11.442;2023-05-13T06:31:03;17.83;;;16.03;;
14121;SDS011;7139;48.114;11.442;2023-05-13T06:33:29;17.40;;;15.47;;
14121;SDS011;7139;48.114;11.442;2023-05-13T06:35:56;16.70;;;14.83;;
14121;SDS011;7139;48.114;11.442;2023-05-13T06:38:23;16.43;;;14.70;;
14121;SDS011;7139;48.114;11.442;2023-05-13T06:40:50;15.70;;;13.97;;
14121;SDS011;7139;48.114;11.442;2023-05-13T06:43:16;16.27;;;14.47;;
14121;SDS011;7139;48.114;11.442;2023-05-13T06:45:43;16.70;;;14.43;;
14121;SDS011;7139;48.114;11.442;2023-05-13T06:48:11;15.80;;;14.23;;
14121;SDS011;7139;48.114;11.442;2023-05-13T06:50:38;15.33;;;13.73;;
14121;SDS011;7139;48.114;11.442;2023-05-13T06:53:05;15.97;;;13.00;;
14121;SDS011;7139;48.114;11.442;2023-05-13T06:55:32;15.07;;;13.50;;
14121;SDS011;7139;48.114;11.442;2023-05-13T06:58:05;15.27;;;13.50;;
14121;SDS011;7139;48.114;11.442;2023-05-13T07:00:32;16.40;;;12.83;;
14121;SDS011;7139;48.114;11.442;2023-05-13T07:03:01;15.10;;;13.50;;
14121;SDS011;7139;48.114;11.442;2023-05-13T07:05:29;18.33;;;14.23;;
14121;SDS011;7139;48.114;11.442;2023-05-13T07:07:56;15.00;;;13.10;;
14121;SDS011;7139;48.114;11.442;2023-05-13T07:10:23;14.27;;;12.87;;
14121;SDS011;7139;48.114;11.442;2023-05-13T07:12:50;15.17;;;12.50;;
14121;SDS011;7139;48.114;11.442;2023-05-13T07:15:16;15.33;;;12.47;;
14121;SDS011;7139;48.114;11.442;2023-05-13T07:17:43;13.57;;;12.00;;
14121;SDS011;7139;48.114;11.442;2023-05-13T07:20:10;13.73;;;12.17;;
14121;SDS011;7139;48.114;11.442;2023-05-13T07:22:38;14.63;;;12.97;;
14121;SDS011;7139;48.114;11.442;2023-05-13T07:25:05;14.57;;;13.07;;
14121;SDS011;7139;48.114;11.442;2023-05-13T07:27:32;13.67;;;12.27;;
14121;SDS011;7139;48.114;11.442;2023-05-13T07:29:59;13.37;;;11.97;;
14121;SDS011;7139;48.114;11.442;2023-05-13T07:32:27;14.23;;;12.73;;
14121;SDS011;7139;48.114;11.442;2023-05-13T07:34:54;13.60;;;12.20;;
14121;SDS011;7139;48.114;11.442;2023-05-13T07:37:21;13.97;;;12.47;;
14121;SDS011;7139;48.114;11.442;2023-05-13T07:39:49;15.27;;;12.57;;
14121;SDS011;7139;48.114;11.442;2023-05-13T07:42:17;14.63;;;12.40;;
14121;SDS011;7139;48.114;11.442;2023-05-13T07:44:44;15.10;;;12.20;;
14121;SDS011;7139;48.114;11.442;2023-05-13T07:47:11;13.10;;;11.77;;
14121;SDS011;7139;48.114;11.442;2023-05-13T07:49:37;13.53;;;11.83;;
14121;SDS011;7139;48.114;11.442;2023-05-13T07:52:04;13.50;;;11.70;;
14121;SDS011;7139;48.114;11.442;2023-05-13T07:54:31;12.83;;;11.47;;
14121;SDS011;7139;48.114;11.442;2023-05-13T07:56:59;14.70;;;11.77;;
14121;SDS011;7139;48.114;11.442;2023-05-13T07:59:26;13.20;;;11.90;;
14121;SDS011;7139;48.114;11.442;2023-05-13T08:01:53;15.40;;;12.77;;
14121;SDS011;7139;48.114;11.442;2023-05-13T08:04:20;14.00;;;12.57;;
14121;SDS011;7139;48.114;11.442;2023-05-13T08:06:47;17.53;;;13.57;;
14121;SDS011;7139;48.114;11.442;2023-05-13T08:09:13;15.13;;;13.57;;
14121;SDS011;7139;48.114;11.442;2023-05-13T08:11:40;16.47;;;14.77;;
14121;SDS011;7139;48.114;11.442;2023-05-13T08:14:08;16.13;;;14.17;;
14121;SDS011;7139;48.114;11.442;2023-05-13T08:16:35;15.77;;;14.03;;
14121;SDS011;7139;48.114;11.442;2023-05-13T08:19:02;15.10;;;13.20;;
14121;SDS011;7139;48.114;11.442;2023-05-13T08:21:29;16.33;;;13.87;;
14121;SDS011;7139;48.114;11.442;2023-05-13T08:23:56;19.43;;;16.57;;
14121;SDS011;7139;48.114;11.442;2023-05-13T08:26:23;14.47;;;12.80;;
14121;SDS011;7139;48.114;11.442;2023-05-13T08:28:50;17.47;;;14.23;;
14121;SDS011;7139;48.114;11.442;2023-05-13T08:31:18;15.60;;;13.67;;
14121;SDS011;7139;48.114;11.442;2023-05-13T08:33:45;16.27;;;13.93;;
14121;SDS011;7139;48.114;11.442;2023-05-13T08:36:12;16.10;;;13.60;;
14121;SDS011;7139;48.114;11.442;2023-05-13T08:38:40;15.03;;;13.13;;
14121;SDS011;7139;48.114;11.442;2023-05-13T08:41:07;15.10;;;13.50;;
14121;SDS011;7139;48.114;11.442;2023-05-13T08:43:37;17.00;;;15.30;;
14121;SDS011;7139;48.114;11.442;2023-05-13T08:46:05;14.77;;;13.23;;
14121;SDS011;7139;48.114;11.442;2023-05-13T08:48:36;16.07;;;14.37;;
14121;SDS011;7139;48.114;11.442;2023-05-13T08:51:04;17.33;;;15.37;;
14121;SDS011;7139;48.114;11.442;2023-05-13T08:53:30;15.70;;;14.10;;
14121;SDS011;7139;48.114;11.442;2023-05-13T08:55:59;15.97;;;14.27;;
14121;SDS011;7139;48.114;11.442;2023-05-13T08:58:26;15.93;;;13.17;;
14121;SDS011;7139;48.114;11.442;2023-05-13T09:00:53;15.20;;;12.43;;
14121;SDS011;7139;48.114;11.442;2023-05-13T09:03:20;15.87;;;14.07;;
14121;SDS011;7139;48.114;11.442;2023-05-13T09:05:49;13.60;;;12.20;;
14121;SDS011;7139;48.114;11.442;2023-05-13T09:08:16;12.77;;;11.57;;
14121;SDS011;7139;48.114;11.442;2023-05-13T09:10:43;12.20;;;10.77;;
14121;SDS011;7139;48.114;11.442;2023-05-13T09:13:11;11.30;;;10.20;;
14121;SDS011;7139;48.114;11.442;2023-05-13T09:15:40;9.83;;;8.90;;
14121;SDS011;7139;48.114;11.442;2023-05-13T09:18:07;10.10;;;9.10;;
14121;SDS011;7139;48.114;11.442;2023-05-13T09:20:34;11.27;;;10.07;;
14121;SDS011;7139;48.114;11.442;2023-05-13T09:23:04;11.13;;;10.03;;
14121;SDS011;7139;48.114;11.442;2023-05-13T09:25:31;12.63;;;11.33;;
14121;SDS011;7139;48.114;11.442;2023-05-13T09:27:59;13.57;;;12.17;;
14121;SDS011;7139;48.114;11.442;2023-05-13T09:30:27;14.07;;;12.57;;
14121;SDS011;7139;48.114;11.442;2023-05-13T09:33:07;15.03;;;13.17;;
14121;SDS011;7139;48.114;11.442;2023-05-13T09:35:36;14.37;;;12.90;;
14121;SDS011;7139;48.114;11.442;2023-05-13T09:38:12;13.87;;;12.33;;
14121;SDS011;7139;48.114;11.442;2023-05-13T09:40:40;13.63;;;12.17;;
14121;SDS011;7139;48.114;11.442;2023-05-13T09:43:07;15.10;;;12.40;;
14121;SDS011;7139;48.114;11.442;2023-05-13T09:45:33;15.73;;;11.33;;
14121;SDS011;7139;48.114;11.442;2023-05-13T09:48:01;12.60;;;11.27;;
14121;SDS011;7139;48.114;11.442;2023-05-13T09:50:28;13.03;;;11.77;;
14121;SDS011;7139;48.114;11.442;2023-05-13T09:52:57;12.70;;;11.40;;
14121;SDS011;7139;48.114;11.442;2023-05-13T09:55:35;12.10;;;10.90;;
14121;SDS011;7139;48.114;11.442;2023-05-13T09:58:02;14.87;;;11.67;;
14121;SDS011;7139;48.114;11.442;2023-05-13T10:00:35;11.97;;;10.77;;
14121;SDS011;7139;48.114;11.442;2023-05-13T10:03:02;11.97;;;10.77;;
14121;SDS011;7139;48.114;11.442;2023-05-13T10:05:30;12.07;;;10.97;;
14121;SDS011;7139;48.114;11.442;2023-05-13T10:08:00;12.07;;;10.87;;
14121;SDS011;7139;48.114;11.442;2023-05-13T10:10:27;13.57;;;12.17;;
14121;SDS011;7139;48.114;11.442;2023-05-13T10:12:57;16.90;;;15.20;;
14121;SDS011;7139;48.114;11.442;2023-05-13T10:15:28;16.47;;;14.70;;
14121;SDS011;7139;48.114;11.442;2023-05-13T10:17:55;15.70;;;14.10;;
14121;SDS011;7139;48.114;11.442;2023-05-13T10:20:23;14.77;;;13.33;;
14121;SDS011;7139;48.114;11.442;2023-05-13T10:22:51;13.80;;;12.40;;
14121;SDS011;7139;48.114;11.442;2023-05-13T10:25:18;13.77;;;12.30;;
14121;SDS011;7139;48.114;11.442;2023-05-13T10:27:45;13.13;;;11.73;;
14121;SDS011;7139;48.114;11.442;2023-05-13T10:30:14;13.03;;;11.70;;
14121;SDS011;7139;48.114;11.442;2023-05-13T10:32:43;11.80;;;10.70;;
14121;SDS011;7139;48.114;11.442;2023-05-13T10:35:11;11.80;;;10.67;;
14121;SDS011;7139;48.114;11.442;2023-05-13T10:37:49;11.67;;;10.57;;
14121;SDS011;7139;48.114;11.442;2023-05-13T10:40:28;12.10;;;10.90;;
14121;SDS011;7139;48.114;11.442;2023-05-13T10:43:08;10.73;;;9.73;;
14121;SDS011;7139;48.114;11.442;2023-05-13T10:45:39;10.80;;;9.67;;
14121;SDS011;7139;48.114;11.442;2023-05-13T10:48:10;10.33;;;9.33;;
14121;SDS011;7139;48.114;11.442;2023-05-13T10:50:38;11.30;;;10.20;;
14121;SDS011;7139;48.114;11.442;2023-05-13T10:53:17;12.47;;;11.27;;
14121;SDS011;7139;48.114;11.442;2023-05-13T10:55:45;12.57;;;11.37;;
14121;SDS011;7139;48.114;11.442;2023-05-13T10:58:20;12.77;;;11.57;;
14121;SDS011;7139;48.114;11.442;2023-05-13T11:00:58;13.47;;;12.07;;
14121;SDS011;7139;48.114;11.442;2023-05-13T11:03:39;10.93;;;9.93;;
14121;SDS011;7139;48.114;11.442;2023-05-13T11:06:13;11.20;;;10.10;;
14121;SDS011;7139;48.114;11.442;2023-05-13T11:08:41;10.63;;;9.63;;
14121;SDS011;7139;48.114;11.442;2023-05-13T11:11:16;10.37;;;9.37;;
14121;SDS011;7139;48.114;11.442;2023-05-13T11:13:56;10.20;;;9.20;;
14121;SDS011;7139;48.114;11.442;2023-05-13T11:16:33;9.40;;;8.50;;
14121;SDS011;7139;48.114;11.442;2023-05-13T11:19:01;9.13;;;8.33;;
14121;SDS011;7139;48.114;11.442;2023-05-13T11:21:29;9.30;;;8.40;;
14121;SDS011;7139;48.114;11.442;2023-05-13T11:23:57;8.87;;;8.07;;
14121;SDS011;7139;48.114;11.442;2023-05-13T11:26:40;9.00;;;8.20;;
14121;SDS011;7139;48.114;11.442;2023-05-13T11:29:09;8.27;;;7.47;;
14121;SDS011;7139;48.114;11.442;2023-05-13T11:31:48;10.17;;;6.87;;
14121;SDS011;7139;48.114;11.442;2023-05-13T11:34:17;7.73;;;5.83;;
14121;SDS011;7139;48.114;11.442;2023-05-13T11:36:45;7.30;;;6.60;;
14121;SDS011;7139;48.114;11.442;2023-05-13T11:39:14;7.00;;;6.40;;
14121;SDS011;7139;48.114;11.442;2023-05-13T11:41:43;5.80;;;5.30;;
14121;SDS011;7139;48.114;11.442;2023-05-13T11:44:12;6.70;;;6.10;;
14121;SDS011;7139;48.114;11.442;2023-05-13T11:46:53;6.67;;;6.07;;
14121;SDS011;7139;48.114;11.442;2023-05-13T11:49:33;5.50;;;5.00;;
14121;SDS011;7139;48.114;11.442;2023-05-13T11:52:05;6.57;;;5.87;;
14121;SDS011;7139;48.114;11.442;2023-05-13T11:54:40;7.50;;;6.80;;
14121;SDS011;7139;48.114;11.442;2023-05-13T11:57:19;7.73;;;6.93;;
14121;SDS011;7139;48.114;11.442;2023-05-13T11:59:50;7.17;;;6.57;;
14121;SDS011;7139;48.114;11.442;2023-05-13T12:02:20;6.47;;;5.97;;
14121;SDS011;7139;48.114;11.442;2023-05-13T12:04:48;6.50;;;5.50;;
14121;SDS011;7139;48.114;11.442;2023-05-13T12:07:18;6.87;;;6.27;;
14121;SDS011;7139;48.114;11.442;2023-05-13T12:09:45;6.70;;;6.10;;
14121;SDS011;7139;48.114;11.442;2023-05-13T12:12:12;7.40;;;6.80;;
14121;SDS011;7139;48.114;11.442;2023-05-13T12:14:40;6.40;;;5.90;;
14121;SDS011;7139;48.114;11.442;2023-05-13T12:17:07;6.50;;;6.00;;
14121;SDS011;7139;48.114;11.442;2023-05-13T12:19:36;6.50;;;6.00;;
14121;SDS011;7139;48.114;11.442;2023-05-13T12:22:03;6.60;;;6.03;;
14121;SDS011;7139;48.114;11.442;2023-05-13T12:24:31;6.10;;;5.60;;
14121;SDS011;7139;48.114;11.442;2023-05-13T12:27:03;5.80;;;5.30;;
14121;SDS011;7139;48.114;11.442;2023-05-13T12:29:37;6.83;;;6.33;;
14121;SDS011;7139;48.114;11.442;2023-05-13T12:32:06;6.37;;;5.77;;
14121;SDS011;7139;48.114;11.442;2023-05-13T12:34:37;6.40;;;5.90;;
14121;SDS011;7139;48.114;11.442;2023-05-13T12:37:10;6.47;;;5.87;;
14121;SDS011;7139;48.114;11.442;2023-05-13T12:39:38;5.70;;;5.20;;
14121;SDS011;7139;48.114;11.442;2023-05-13T12:42:05;5.53;;;5.13;;
14121;SDS011;7139;48.114;11.442;2023-05-13T12:44:39;4.83;;;4.43;;
14121;SDS011;7139;48.114;11.442;2023-05-13T12:47:06;5.17;;;4.77;;
14121;SDS011;7139;48.114;11.442;2023-05-13T12:49:34;5.03;;;4.57;;
14121;SDS011;7139;48.114;11.442;2023-05-13T12:52:02;5.17;;;4.77;;
14121;SDS011;7139;48.114;11.442;2023-05-13T12:54:29;4.63;;;4.30;;
14121;SDS011;7139;48.114;11.442;2023-05-13T12:56:56;5.00;;;4.60;;
14121;SDS011;7139;48.114;11.442;2023-05-13T12:59:23;5.00;;;4.60;;
14121;SDS011;7139;48.114;11.442;2023-05-13T13:01:53;4.87;;;4.47;;
14121;SDS011;7139;48.114;11.442;2023-05-13T13:04:20;4.47;;;4.07;;
14121;SDS011;7139;48.114;11.442;2023-05-13T13:06:47;4.63;;;4.33;;
14121;SDS011;7139;48.114;11.442;2023-05-13T13:09:15;4.20;;;3.90;;
14121;SDS011;7139;48.114;11.442;2023-05-13T13:11:42;4.30;;;4.00;;
14121;SDS011;7139;48.114;11.442;2023-05-13T13:14:08;4.47;;;4.07;;
14121;SDS011;7139;48.114;11.442;2023-05-13T13:16:35;4.23;;;3.93;;
14121;SDS011;7139;48.114;11.442;2023-05-13T13:19:02;4.20;;;3.90;;
14121;SDS011;7139;48.114;11.442;2023-05-13T13:21:28;3.83;;;3.53;;
14121;SDS011;7139;48.114;11.442;2023-05-13T13:23:56;5.50;;;4.30;;
14121;SDS011;7139;48.114;11.442;2023-05-13T13:26:24;4.40;;;4.10;;
14121;SDS011;7139;48.114;11.442;2023-05-13T13:28:50;4.30;;;4.00;;
14121;SDS011;7139;48.114;11.442;2023-05-13T13:31:17;4.07;;;3.77;;
14121;SDS011;7139;48.114;11.442;2023-05-13T13:33:44;3.77;;;3.40;;
14121;SDS011;7139;48.114;11.442;2023-05-13T13:36:11;4.67;;;3.50;;
14121;SDS011;7139;48.114;11.442;2023-05-13T13:38:37;3.60;;;3.30;;
14121;SDS011;7139;48.114;11.442;2023-05-13T13:41:04;3.60;;;3.30;;
14121;SDS011;7139;48.114;11.442;2023-05-13T13:43:32;4.00;;;3.60;;
14121;SDS011;7139;48.114;11.442;2023-05-13T13:45:59;4.40;;;4.00;;
14121;SDS011;7139;48.114;11.442;2023-05-13T13:48:26;3.77;;;3.53;;
14121;SDS011;7139;48.114;11.442;2023-05-13T13:50:53;4.43;;;3.90;;
14121;SDS011;7139;48.114;11.442;2023-05-13T13:53:20;3.47;;;3.17;;
14121;SDS011;7139;48.114;11.442;2023-05-13T13:55:47;4.20;;;3.90;;
14121;SDS011;7139;48.114;11.442;2023-05-13T13:58:14;3.97;;;3.67;;
14121;SDS011;7139;48.114;11.442;2023-05-13T14:00:42;4.20;;;3.90;;
14121;SDS011;7139;48.114;11.442;2023-05-13T14:03:08;4.10;;;3.80;;
14121;SDS011;7139;48.114;11.442;2023-05-13T14:05:35;4.20;;;3.90;;
14121;SDS011;7139;48.114;11.442;2023-05-13T14:08:02;4.10;;;3.80;;
14121;SDS011;7139;48.114;11.442;2023-05-13T14:10:29;4.23;;;3.83;;
14121;SDS011;7139;48.114;11.442;2023-05-13T14:12:55;4.07;;;3.77;;
14121;SDS011;7139;48.114;11.442;2023-05-13T14:15:22;3.87;;;3.57;;
14121;SDS011;7139;48.114;11.442;2023-05-13T14:17:53;3.40;;;3.20;;
14121;SDS011;7139;48.114;11.442;2023-05-13T14:20:20;3.20;;;3.00;;
14121;SDS011;7139;48.114;11.442;2023-05-13T14:22:48;3.50;;;3.30;;
14121;SDS011;7139;48.114;11.442;2023-05-13T14:25:15;3.70;;;3.50;;
14121;SDS011;7139;48.114;11.442;2023-05-13T14:27:42;4.00;;;3.70;;
14121;SDS011;7139;48.114;11.442;2023-05-13T14:30:09;4.33;;;3.40;;
14121;SDS011;7139;48.114;11.442;2023-05-13T14:32:36;3.30;;;3.10;;
14121;SDS011;7139;48.114;11.442;2023-05-13T14:35:05;3.10;;;2.90;;
14121;SDS011;7139;48.114;11.442;2023-05-13T14:37:32;3.20;;;3.00;;